Time;durP1;ratioP1;P1;durP2;ratioP2;P2;SDS_P1;SDS_P2;PMS_P1;PMS_P2;Temp;Humidity;BMP_temperature;BMP_pressure;BME280_temperature;BME280_humidity;BME280_pressure;Samples;Min_cycle;Max_cycle;Signal;HPM_P1;HPM_P2
2022/07/06 00:01:38;;;;;;;6.65;2.40;;;13.50;99.90;;;;;;5011973;28;20129;-76
2022/07/06 00:04:04;;;;;;;6.57;2.50;;;13.70;99.90;;;;;;4994433;28;20046;-75
2022/07/06 00:06:30;;;;;;;5.88;2.30;;;13.70;99.90;;;;;;4994511;28;20089;-76
2022/07/06 00:08:56;;;;;;;5.50;2.08;;;13.90;99.90;;;;;;5011880;28;20132;-76
2022/07/06 00:11:23;;;;;;;7.75;2.50;;;;;;;;;;4994513;28;20041;-76
2022/07/06 00:13:48;;;;;;;8.35;2.60;;;13.30;99.90;;;;;;5012016;28;20041;-76
2022/07/06 00:16:15;;;;;;;5.28;2.30;;;13.90;99.90;;;;;;4994702;28;20045;-76
2022/07/06 00:18:41;;;;;;;5.03;2.35;;;13.40;99.90;;;;;;4994519;28;20056;-76
2022/07/06 00:21:07;;;;;;;4.88;2.50;;;;;;;;;;5011869;28;20125;-76
2022/07/06 00:23:32;;;;;;;7.38;2.65;;;13.90;99.90;;;;;;4978033;28;20562;-77
2022/07/06 00:25:58;;;;;;;9.82;2.50;;;13.70;99.90;;;;;;5011934;28;20045;-77
2022/07/06 00:28:24;;;;;;;6.20;2.45;;;13.90;99.90;;;;;;4994114;28;20093;-76
2022/07/06 00:30:50;;;;;;;5.88;2.55;;;13.70;99.90;;;;;;4994349;28;20042;-76
2022/07/06 00:33:15;;;;;;;6.10;2.70;;;13.60;99.90;;;;;;4994112;28;20052;-76
2022/07/06 00:35:41;;;;;;;7.53;2.75;;;13.60;99.90;;;;;;4978259;28;20500;-76
2022/07/06 00:38:07;;;;;;;10.55;2.95;;;13.50;99.90;;;;;;5011476;28;20691;-76
2022/07/06 00:40:32;;;;;;;7.68;2.67;;;13.30;99.90;;;;;;4978272;28;20045;-77
2022/07/06 00:42:58;;;;;;;10.20;2.85;;;13.70;99.90;;;;;;4977731;28;20042;-77
2022/07/06 00:45:24;;;;;;;5.72;2.60;;;;;;;;;;4961310;28;20057;-76
2022/07/06 00:47:50;;;;;;;9.07;2.70;;;13.40;99.90;;;;;;4994143;28;20050;-76
2022/07/06 00:50:20;;;;;;;6.78;2.50;;;13.70;99.90;;;;;;4994123;28;20492;-77
2022/07/06 00:53:04;;;;;;;8.52;2.60;;;13.30;99.90;;;;;;4995555;28;20128;-76
2022/07/06 00:55:31;;;;;;;4.88;2.40;;;13.60;99.90;;;;;;5011947;28;20117;-76
2022/07/06 00:57:57;;;;;;;9.07;2.45;;;;;;;;;;4994336;28;20600;-76
2022/07/06 01:00:55;;;;;;;5.85;2.45;;;13.40;99.90;;;;;;5028786;23;20016;-56
2022/07/06 01:03:21;;;;;;;6.20;2.30;;;13.90;99.90;;;;;;5013559;28;20413;-58
2022/07/06 01:05:47;;;;;;;5.55;2.70;;;13.70;99.90;;;;;;5015239;28;20045;-58
2022/07/06 01:08:13;;;;;;;6.68;2.30;;;14.00;99.90;;;;;;5015358;28;20037;-58
2022/07/06 01:10:39;;;;;;;5.90;2.47;;;13.80;99.90;;;;;;5015209;28;20052;-58
2022/07/06 01:13:05;;;;;;;8.38;2.75;;;14.10;99.90;;;;;;4981516;28;20038;-58
2022/07/06 01:15:30;;;;;;;6.78;3.03;;;13.50;99.90;;;;;;5015164;28;20034;-57
2022/07/06 01:17:56;;;;;;;5.10;2.35;;;13.50;99.90;;;;;;5015354;28;20104;-57
2022/07/06 01:20:25;;;;;;;9.38;2.60;;;13.80;99.90;;;;;;5014681;28;20057;-58
2022/07/06 01:22:52;;;;;;;8.70;2.38;;;13.80;99.90;;;;;;5014919;28;20044;-58
2022/07/06 01:25:19;;;;;;;6.20;2.42;;;14.10;99.90;;;;;;5014894;28;20117;-49
2022/07/06 01:27:45;;;;;;;5.50;2.50;;;13.60;99.90;;;;;;5014652;28;20038;-49
2022/07/06 01:30:12;;;;;;;6.75;2.45;;;13.80;99.90;;;;;;5014772;28;20555;-49
2022/07/06 01:32:39;;;;;;;7.97;2.50;;;13.40;99.90;;;;;;5014415;28;20496;-50
2022/07/06 01:35:06;;;;;;;6.97;2.72;;;14.10;99.90;;;;;;4996946;28;20598;-48
2022/07/06 01:37:32;;;;;;;8.52;2.47;;;13.90;99.90;;;;;;5014382;28;20501;-48
2022/07/06 01:40:03;;;;;;;5.78;2.45;;;13.70;99.90;;;;;;5014871;28;20444;-50
2022/07/06 01:42:29;;;;;;;7.25;2.50;;;13.80;99.90;;;;;;5014345;28;20485;-48
2022/07/06 01:44:55;;;;;;;6.53;2.42;;;;;;;;;;5014484;28;20040;-49
2022/07/06 01:47:21;;;;;;;6.57;2.42;;;14.10;99.90;;;;;;4996568;28;20050;-50
2022/07/06 01:49:46;;;;;;;6.43;2.40;;;13.90;99.90;;;;;;5014924;28;20120;-49
2022/07/06 01:52:12;;;;;;;6.72;2.40;;;13.80;99.90;;;;;;5014690;28;20422;-49
2022/07/06 01:54:38;;;;;;;9.32;2.78;;;13.60;99.90;;;;;;5014268;28;20049;-50
2022/07/06 01:57:04;;;;;;;6.22;2.33;;;13.90;99.90;;;;;;5014073;28;20136;-49
2022/07/06 01:59:30;;;;;;;7.63;2.55;;;13.90;99.90;;;;;;4996597;28;20485;-53
2022/07/06 02:01:56;;;;;;;6.55;2.40;;;13.70;99.90;;;;;;5021974;28;20053;-50
2022/07/06 02:04:22;;;;;;;7.65;2.60;;;14.00;99.90;;;;;;5033950;28;20049;-47
2022/07/06 02:06:47;;;;;;;8.15;2.50;;;13.90;99.90;;;;;;5033536;28;20041;-48
2022/07/06 02:09:13;;;;;;;5.40;2.40;;;13.80;99.90;;;;;;5033668;28;20037;-50
2022/07/06 02:11:39;;;;;;;4.80;2.30;;;14.00;99.90;;;;;;5033847;28;20045;-50
2022/07/06 02:14:05;;;;;;;9.05;2.60;;;13.70;99.90;;;;;;5033262;28;20435;-48
2022/07/06 02:16:31;;;;;;;8.63;2.70;;;13.90;99.90;;;;;;5033647;28;20493;-48
2022/07/06 02:18:56;;;;;;;4.65;2.35;;;14.10;99.90;;;;;;5033719;28;20037;-52
2022/07/06 02:21:22;;;;;;;5.80;2.42;;;13.70;99.90;;;;;;5033817;28;20369;-49
2022/07/06 02:23:48;;;;;;;6.55;2.78;;;13.80;99.90;;;;;;5033581;28;20088;-51
2022/07/06 02:26:14;;;;;;;6.93;2.78;;;13.80;99.90;;;;;;5033590;28;20519;-50
2022/07/06 02:28:39;;;;;;;10.95;2.95;;;14.00;99.90;;;;;;5033386;28;20037;-48
2022/07/06 02:31:05;;;;;;;6.40;2.60;;;14.00;99.90;;;;;;5033631;28;20049;-48
2022/07/06 02:33:31;;;;;;;7.43;2.63;;;13.90;99.90;;;;;;5033417;28;20072;-47
2022/07/06 02:35:56;;;;;;;6.13;2.60;;;14.30;99.90;;;;;;5015697;28;20099;-51
2022/07/06 02:38:22;;;;;;;8.52;3.15;;;13.70;99.90;;;;;;5033282;28;20524;-48
2022/07/06 02:40:48;;;;;;;6.65;2.50;;;13.80;99.90;;;;;;5015289;28;20081;-48
2022/07/06 02:43:14;;;;;;;6.35;2.80;;;13.70;99.90;;;;;;5033235;28;20095;-49
2022/07/06 02:45:40;;;;;;;7.03;2.60;;;14.10;99.90;;;;;;5015493;28;20492;-49
2022/07/06 02:48:06;;;;;;;12.90;2.80;;;13.70;99.90;;;;;;5033003;28;20128;-48
2022/07/06 02:50:31;;;;;;;7.28;2.92;;;13.90;99.90;;;;;;5032993;28;20049;-48
2022/07/06 02:52:58;;;;;;;5.88;2.80;;;13.70;99.90;;;;;;5015046;28;20068;-49
2022/07/06 02:55:24;;;;;;;6.57;2.95;;;13.60;99.90;;;;;;5015225;28;20396;-49
2022/07/06 02:57:50;;;;;;;6.43;2.80;;;14.30;99.90;;;;;;5033004;28;20051;-50
2022/07/06 03:00:16;;;;;;;9.00;2.72;;;15.00;99.90;;;;;;5032824;28;20045;-48
2022/07/06 03:02:42;;;;;;;8.35;2.78;;;13.60;99.90;;;;;;5032906;28;20041;-48
2022/07/06 03:05:08;;;;;;;7.35;2.70;;;13.90;99.90;;;;;;5015282;28;20460;-49
2022/07/06 03:07:34;;;;;;;5.15;2.53;;;13.80;99.90;;;;;;5015032;28;20531;-48
2022/07/06 03:10:00;;;;;;;5.97;2.60;;;13.80;99.90;;;;;;5032648;28;20045;-48
2022/07/06 03:12:26;;;;;;;7.55;2.60;;;;;;;;;;5015089;28;20045;-49
2022/07/06 03:14:51;;;;;;;9.05;2.80;;;13.80;99.90;;;;;;5032561;28;20045;-49
2022/07/06 03:17:17;;;;;;;7.88;2.67;;;13.90;99.90;;;;;;5014644;28;20400;-50
2022/07/06 03:19:43;;;;;;;6.90;2.65;;;14.00;99.90;;;;;;5032796;28;20037;-49
2022/07/06 03:22:08;;;;;;;8.45;2.50;;;14.00;99.90;;;;;;4998301;28;20123;-46
2022/07/06 03:24:34;;;;;;;10.48;3.20;;;14.00;99.90;;;;;;5031958;28;20053;-49
2022/07/06 03:27:00;;;;;;;7.80;2.90;;;13.90;99.90;;;;;;5031719;28;20041;-50
2022/07/06 03:29:25;;;;;;;9.77;3.05;;;14.00;99.90;;;;;;5032422;28;20037;-51
2022/07/06 03:31:51;;;;;;;6.70;2.80;;;14.10;99.90;;;;;;5032204;28;20397;-48
2022/07/06 03:34:17;;;;;;;7.63;2.67;;;13.90;99.90;;;;;;5032029;28;20037;-48
2022/07/06 03:36:43;;;;;;;7.95;2.42;;;14.20;99.90;;;;;;5031997;28;20046;-49
2022/07/06 03:39:09;;;;;;;8.20;2.90;;;;;;;;;;5014099;28;20045;-47
2022/07/06 03:41:35;;;;;;;7.32;2.67;;;;;;;;;;5032103;28;20084;-48
2022/07/06 03:44:01;;;;;;;5.72;2.47;;;13.70;99.90;;;;;;5031854;28;20116;-48
2022/07/06 03:46:28;;;;;;;7.47;2.72;;;14.00;99.90;;;;;;5031762;28;20192;-48
2022/07/06 03:48:54;;;;;;;8.82;2.60;;;13.80;99.90;;;;;;5030336;28;20042;-49
2022/07/06 03:51:20;;;;;;;5.50;2.40;;;15.10;99.90;;;;;;5031860;28;20512;-49
2022/07/06 03:53:45;;;;;;;9.00;2.50;;;13.90;99.90;;;;;;5031925;28;20041;-50
2022/07/06 03:56:30;;;;;;;7.28;2.50;;;13.90;99.90;;;;;;5031880;28;20041;-48
2022/07/06 03:58:57;;;;;;;6.88;2.65;;;14.00;99.90;;;;;;5031656;28;20045;-49
2022/07/06 04:01:24;;;;;;;7.78;2.53;;;14.00;99.90;;;;;;5031532;28;20088;-48
2022/07/06 04:03:50;;;;;;;10.05;2.60;;;14.20;99.90;;;;;;5013978;28;20446;-49
2022/07/06 04:06:16;;;;;;;4.20;2.25;;;14.30;99.90;;;;;;4997835;28;20081;-47
2022/07/06 04:08:42;;;;;;;7.25;2.45;;;14.10;99.90;;;;;;5013935;28;20041;-58
2022/07/06 04:11:08;;;;;;;6.60;2.45;;;14.10;99.90;;;;;;5031556;28;20499;-58
2022/07/06 04:13:34;;;;;;;7.32;2.70;;;14.20;99.90;;;;;;5031888;28;20037;-58
2022/07/06 04:16:00;;;;;;;6.53;2.58;;;14.40;99.90;;;;;;5031429;28;20079;-47
2022/07/06 04:18:26;;;;;;;8.82;2.65;;;14.20;99.90;;;;;;5031697;28;20037;-57
2022/07/06 04:20:51;;;;;;;9.43;2.72;;;14.10;99.90;;;;;;5031426;28;20033;-58
2022/07/06 04:23:17;;;;;;;5.60;2.47;;;14.40;99.90;;;;;;5031839;28;20037;-57
2022/07/06 04:25:43;;;;;;;9.95;2.90;;;14.50;99.90;;;;;;5031314;28;20084;-57
2022/07/06 04:28:09;;;;;;;7.50;2.53;;;14.20;99.90;;;;;;4997493;28;20052;-58
2022/07/06 04:30:34;;;;;;;5.88;2.50;;;13.70;99.90;;;;;;5031319;28;20451;-57
2022/07/06 04:33:00;;;;;;;5.68;2.58;;;14.30;99.90;;;;;;5031739;28;20084;-58
2022/07/06 04:35:26;;;;;;;5.63;2.60;;;14.40;99.90;;;;;;5031140;28;20033;-57
2022/07/06 04:37:51;;;;;;;7.35;2.80;;;14.20;99.90;;;;;;5034748;28;20049;-58
2022/07/06 04:40:17;;;;;;;5.72;2.40;;;14.40;99.90;;;;;;5035366;28;20111;-58
2022/07/06 04:42:43;;;;;;;7.53;2.40;;;14.60;99.90;;;;;;5035661;28;20103;-58
2022/07/06 04:45:10;;;;;;;11.07;2.72;;;14.60;99.90;;;;;;5035166;28;20076;-57
2022/07/06 04:47:36;;;;;;;8.40;2.40;;;14.80;99.90;;;;;;5034884;28;20042;-57
2022/07/06 04:50:03;;;;;;;7.72;2.28;;;15.40;99.90;;;;;;5035347;28;20041;-57
2022/07/06 04:52:28;;;;;;;7.97;2.20;;;15.50;99.90;;;;;;5035493;28;20053;-58
2022/07/06 04:54:55;;;;;;;8.13;2.20;;;16.20;99.90;;;;;;5034957;28;20041;-58
2022/07/06 04:57:21;;;;;;;5.15;1.90;;;15.90;99.90;;;;;;5034820;28;20095;-57
2022/07/06 04:59:47;;;;;;;5.75;1.80;;;;;;;;;;5017407;28;20443;-58
2022/07/06 05:02:13;;;;;;;4.18;1.80;;;;;;;;;;5035105;28;20072;-58
2022/07/06 05:04:39;;;;;;;6.18;2.00;;;19.20;99.90;;;;;;5017010;28;20053;-58
2022/07/06 05:07:05;;;;;;;5.70;2.10;;;20.10;99.90;;;;;;5035031;28;20111;-58
2022/07/06 05:09:30;;;;;;;6.30;1.75;;;20.30;99.90;;;;;;5034924;28;20076;-58
2022/07/06 05:11:56;;;;;;;4.80;1.77;;;21.70;99.90;;;;;;5034960;28;20056;-58
2022/07/06 05:14:22;;;;;;;8.90;2.45;;;22.60;99.90;;;;;;5034657;28;20167;-58
2022/07/06 05:16:48;;;;;;;6.53;1.77;;;22.90;99.90;;;;;;5016865;28;20041;-59
2022/07/06 05:19:13;;;;;;;6.57;1.67;;;23.30;97.50;;;;;;5034535;28;20069;-58
2022/07/06 05:21:39;;;;;;;6.03;1.88;;;23.90;94.80;;;;;;5034601;28;20435;-58
2022/07/06 05:24:05;;;;;;;6.43;1.75;;;25.20;91.30;;;;;;5034928;28;20050;-54
2022/07/06 05:26:31;;;;;;;7.63;2.00;;;25.20;83.80;;;;;;5034674;28;20457;-53
2022/07/06 05:28:56;;;;;;;6.10;1.55;;;25.80;78.90;;;;;;5034522;28;20136;-53
2022/07/06 05:31:22;;;;;;;8.43;1.70;;;26.40;73.30;;;;;;5034475;28;20092;-54
2022/07/06 05:33:48;;;;;;;9.60;1.80;;;27.40;76.00;;;;;;5034461;28;20473;-54
2022/07/06 05:36:14;;;;;;;6.40;1.73;;;27.70;64.60;;;;;;5034238;28;20120;-54
2022/07/06 05:38:39;;;;;;;7.20;1.80;;;28.10;61.00;;;;;;5034248;28;20478;-54
2022/07/06 05:41:05;;;;;;;5.28;1.58;;;28.50;58.60;;;;;;5034361;28;20500;-54
2022/07/06 05:43:31;;;;;;;6.25;1.60;;;29.00;57.50;;;;;;5034527;28;20491;-55
2022/07/06 05:45:57;;;;;;;6.22;1.77;;;29.50;55.50;;;;;;5034028;28;20124;-54
2022/07/06 05:51:07;;;;;;;4.05;1.50;;;30.00;53.10;;;;;;5033961;28;20607;-55
2022/07/06 05:53:32;;;;;;;7.68;1.65;;;30.30;55.30;;;;;;5034316;28;20113;-54
2022/07/06 05:55:58;;;;;;;6.07;1.40;;;29.80;56.50;;;;;;5034015;28;20044;-54
2022/07/06 05:58:25;;;;;;;5.80;1.40;;;29.80;50.40;;;;;;5034033;28;20077;-55
2022/07/06 06:00:50;;;;;;;6.63;1.50;;;29.50;50.40;;;;;;5033638;28;20041;-55
2022/07/06 06:03:17;;;;;;;4.50;1.40;;;28.30;51.30;;;;;;5033610;28;20141;-55
2022/07/06 06:05:42;;;;;;;7.50;1.50;;;27.20;53.20;;;;;;5033964;28;20045;-53
2022/07/06 06:08:08;;;;;;;4.57;1.30;;;25.90;55.50;;;;;;5033815;28;20049;-54
2022/07/06 06:10:34;;;;;;;5.53;1.50;;;24.00;72.10;;;;;;5033665;28;20048;-54
2022/07/06 06:12:59;;;;;;;6.60;1.50;;;24.00;60.80;;;;;;5033558;28;20501;-52
2022/07/06 06:15:25;;;;;;;4.15;1.30;;;23.30;64.00;;;;;;5033919;28;20037;-53
2022/07/06 06:17:51;;;;;;;4.38;1.30;;;22.70;66.70;;;;;;5033401;28;20453;-51
2022/07/06 06:20:16;;;;;;;5.70;1.38;;;21.60;82.00;;;;;;5033281;28;20045;-53
2022/07/06 06:22:50;;;;;;;7.35;1.60;;;21.30;85.30;;;;;;5033478;28;20081;-53
2022/07/06 06:25:18;;;;;;;4.00;1.08;;;20.50;88.60;;;;;;5015836;28;20049;-51
2022/07/06 06:27:44;;;;;;;8.15;1.45;;;20.50;91.70;;;;;;5033406;28;20037;-51
2022/07/06 06:30:10;;;;;;;6.80;1.30;;;20.50;84.30;;;;;;5015652;28;20116;-53
2022/07/06 06:32:36;;;;;;;4.30;1.48;;;19.90;96.50;;;;;;5033360;28;20113;-53
2022/07/06 06:35:03;;;;;;;6.88;1.40;;;20.00;92.50;;;;;;5033441;28;20124;-54
2022/07/06 06:37:29;;;;;;;4.70;1.27;;;19.90;93.50;;;;;;5033262;28;20369;-54
2022/07/06 06:39:55;;;;;;;4.13;1.20;;;19.70;93.80;;;;;;5033269;28;20037;-52
2022/07/06 06:42:20;;;;;;;4.35;1.23;;;19.50;94.40;;;;;;5032882;28;20034;-58
2022/07/06 06:44:46;;;;;;;5.70;1.30;;;18.90;99.90;;;;;;5033062;28;20048;-59
2022/07/06 06:47:12;;;;;;;6.57;1.40;;;19.20;96.90;;;;;;5033035;28;20554;-58
2022/07/06 06:49:37;;;;;;;5.88;1.30;;;19.10;98.80;;;;;;5032712;28;20143;-50
2022/07/06 06:52:03;;;;;;;5.53;1.23;;;19.00;99.90;;;;;;5032958;28;20080;-52
2022/07/06 06:54:29;;;;;;;8.57;1.63;;;18.70;99.90;;;;;;5033020;28;20059;-52
2022/07/06 06:56:54;;;;;;;5.90;1.30;;;19.00;99.90;;;;;;5032881;28;20075;-50
2022/07/06 06:59:20;;;;;;;8.45;1.85;;;18.90;99.90;;;;;;5014804;28;20045;-51
2022/07/06 07:01:46;;;;;;;7.00;1.50;;;18.80;99.90;;;;;;5032521;28;20045;-52
2022/07/06 07:04:12;;;;;;;5.80;1.52;;;18.80;99.90;;;;;;5032764;28;20068;-58
2022/07/06 07:06:37;;;;;;;6.40;1.42;;;18.70;99.90;;;;;;5032827;28;20199;-58
2022/07/06 07:09:04;;;;;;;4.55;1.38;;;18.60;99.90;;;;;;5032657;28;20040;-59
2022/07/06 07:11:30;;;;;;;7.40;1.33;;;18.00;99.90;;;;;;5032359;28;20048;-59
2022/07/06 07:13:56;;;;;;;9.10;1.70;;;18.10;99.90;;;;;;5032583;28;20045;-59
2022/07/06 07:16:24;;;;;;;4.85;1.40;;;18.20;99.90;;;;;;5032766;28;20037;-58
2022/07/06 07:18:50;;;;;;;5.60;1.35;;;18.10;99.90;;;;;;5032414;28;20431;-58
2022/07/06 07:21:16;;;;;;;7.38;1.42;;;18.10;99.90;;;;;;5032553;28;20053;-58
2022/07/06 07:23:41;;;;;;;5.50;1.45;;;18.00;99.90;;;;;;5032164;28;20096;-58
2022/07/06 07:26:07;;;;;;;4.13;1.30;;;17.90;99.90;;;;;;5032368;28;20374;-58
2022/07/06 07:28:33;;;;;;;3.40;1.20;;;18.00;99.90;;;;;;5032223;28;20459;-58
2022/07/06 07:30:59;;;;;;;5.28;0.98;;;18.40;99.90;;;;;;5031995;28;20120;-59
2022/07/06 07:33:25;;;;;;;5.90;1.40;;;18.20;99.90;;;;;;5032318;28;20178;-58
2022/07/06 07:35:50;;;;;;;7.22;1.50;;;18.50;99.90;;;;;;5014649;28;20270;-58
2022/07/06 07:38:16;;;;;;;7.75;1.52;;;18.90;99.90;;;;;;5032242;28;20049;-58
2022/07/06 07:40:42;;;;;;;3.60;1.20;;;18.80;99.90;;;;;;5031883;28;20457;-58
2022/07/06 07:43:07;;;;;;;5.40;1.23;;;19.20;99.90;;;;;;5031711;28;20132;-59
2022/07/06 07:45:33;;;;;;;3.95;1.38;;;19.00;99.90;;;;;;5032411;28;20049;-58
2022/07/06 07:47:58;;;;;;;4.10;1.30;;;19.50;99.90;;;;;;5031694;28;20075;-59
2022/07/06 07:50:24;;;;;;;4.47;1.20;;;19.50;99.90;;;;;;5031751;28;20049;-58
2022/07/06 07:52:50;;;;;;;6.28;1.50;;;20.80;99.90;;;;;;5031854;28;20048;-59
2022/07/06 07:55:16;;;;;;;3.85;1.55;;;20.00;99.90;;;;;;5032103;28;20397;-58
2022/07/06 07:57:41;;;;;;;3.65;1.25;;;19.70;99.90;;;;;;5031864;28;20131;-58
2022/07/06 08:00:08;;;;;;;6.85;1.40;;;19.80;99.90;;;;;;5032211;28;20041;-58
2022/07/06 08:02:33;;;;;;;5.93;1.50;;;19.60;99.90;;;;;;5031369;28;20049;-58
2022/07/06 08:04:59;;;;;;;6.25;1.42;;;19.20;99.90;;;;;;5030866;28;20052;-58
2022/07/06 08:07:25;;;;;;;6.72;1.35;;;19.10;99.90;;;;;;5031820;28;20044;-58
2022/07/06 08:09:50;;;;;;;6.60;1.65;;;18.90;99.90;;;;;;5013980;28;20559;-59
2022/07/06 08:12:16;;;;;;;3.67;1.27;;;19.00;99.90;;;;;;5031223;28;20041;-48
2022/07/06 08:14:42;;;;;;;3.70;1.20;;;18.60;99.90;;;;;;5031746;28;20033;-50
2022/07/06 08:17:07;;;;;;;4.72;1.20;;;19.10;99.90;;;;;;5013830;28;20405;-49
2022/07/06 08:19:33;;;;;;;4.10;1.02;;;19.50;99.80;;;;;;5031631;28;20077;-52
2022/07/06 08:21:59;;;;;;;102.55;5.20;;;19.90;98.70;;;;;;5031610;28;20037;-52
2022/07/06 08:24:24;;;;;;;4.28;1.65;;;20.20;99.20;;;;;;5031624;28;20044;-52
2022/07/06 08:26:50;;;;;;;8.15;1.27;;;20.50;97.00;;;;;;5031796;28;20049;-52
2022/07/06 08:29:16;;;;;;;5.07;1.20;;;21.00;99.90;;;;;;5031481;28;20040;-52
2022/07/06 08:31:42;;;;;;;6.20;1.35;;;20.90;95.40;;;;;;5031629;28;20038;-50
2022/07/06 08:34:07;;;;;;;3.58;1.33;;;21.00;94.70;;;;;;5031548;28;20033;-54
2022/07/06 08:36:33;;;;;;;3.92;1.30;;;21.20;99.50;;;;;;5031752;28;20053;-52
2022/07/06 08:38:59;;;;;;;4.43;1.27;;;21.10;97.40;;;;;;5031550;28;20042;-58
2022/07/06 08:41:28;;;;;;;5.70;1.40;;;21.50;97.30;;;;;;5031297;28;20047;-58
2022/07/06 08:43:53;;;;;;;4.20;1.10;;;21.70;95.50;;;;;;5031588;28;20037;-58
2022/07/06 08:46:20;;;;;;;4.13;1.20;;;21.40;97.20;;;;;;5031435;28;20391;-59
2022/07/06 08:48:48;;;;;;;3.80;0.88;;;21.40;96.40;;;;;;5031123;28;20541;-59
2022/07/06 08:51:14;;;;;;;5.43;1.38;;;21.20;96.60;;;;;;5031408;28;20143;-59
2022/07/06 08:53:45;;;;;;;7.47;1.40;;;21.30;91.20;;;;;;5031423;28;20079;-59
2022/07/06 08:56:11;;;;;;;4.40;1.20;;;21.40;91.70;;;;;;5031557;28;20120;-59
2022/07/06 08:58:40;;;;;;;4.75;1.73;;;21.50;91.20;;;;;;5031032;28;20128;-59
2022/07/06 09:01:08;;;;;;;3.58;1.20;;;21.50;90.40;;;;;;5031283;28;20050;-60
2022/07/06 09:03:35;;;;;;;3.75;1.10;;;21.40;90.40;;;;;;5030947;28;20497;-59
2022/07/06 09:06:02;;;;;;;4.00;1.02;;;21.30;90.70;;;;;;5031058;28;20052;-60
2022/07/06 09:08:31;;;;;;;3.50;1.30;;;21.10;90.80;;;;;;5031035;28;20037;-60
2022/07/06 09:10:56;;;;;;;3.65;1.05;;;21.00;90.30;;;;;;5031261;28;20128;-59
2022/07/06 09:13:22;;;;;;;5.43;1.25;;;21.10;95.00;;;;;;5031308;28;20117;-59
2022/07/06 09:15:48;;;;;;;3.00;1.00;;;20.90;91.00;;;;;;5030870;28;20091;-59
2022/07/06 09:18:17;;;;;;;3.60;1.00;;;21.00;90.50;;;;;;5031349;28;20104;-58
2022/07/06 09:20:43;;;;;;;5.18;1.10;;;20.30;94.80;;;;;;5030887;28;20501;-59
2022/07/06 09:23:10;;;;;;;8.18;1.33;;;21.00;91.50;;;;;;5031289;28;20397;-59
2022/07/06 09:25:36;;;;;;;3.25;1.23;;;21.10;91.90;;;;;;5034472;28;20046;-59
2022/07/06 09:28:02;;;;;;;4.43;1.10;;;21.10;90.30;;;;;;5034863;28;20041;-59
2022/07/06 09:30:29;;;;;;;4.70;1.30;;;21.30;94.90;;;;;;5034659;28;20041;-60
2022/07/06 09:32:57;;;;;;;5.28;1.20;;;21.20;90.80;;;;;;5034811;28;20151;-59
2022/07/06 09:35:31;;;;;;;5.60;1.23;;;21.60;87.30;;;;;;5034486;28;20041;-60
2022/07/06 09:38:00;;;;;;;4.43;1.00;;;21.40;92.30;;;;;;5034768;28;20037;-58
2022/07/06 09:40:26;;;;;;;4.03;1.20;;;21.70;85.70;;;;;;5034638;28;20049;-59
2022/07/06 09:43:07;;;;;;;2.63;1.10;;;21.70;84.80;;;;;;5034323;28;20045;-59
2022/07/06 09:45:37;;;;;;;2.50;0.98;;;21.60;82.00;;;;;;5034099;28;20048;-58
2022/07/06 09:48:09;;;;;;;4.45;1.00;;;21.40;91.40;;;;;;5034194;28;20075;-58
2022/07/06 09:50:46;;;;;;;2.97;1.00;;;21.50;85.40;;;;;;5034398;28;20064;-58
2022/07/06 09:53:13;;;;;;;4.22;1.15;;;21.30;85.10;;;;;;5034319;28;20037;-58
2022/07/06 09:55:49;;;;;;;2.92;1.10;;;20.90;91.50;;;;;;5034065;28;20037;-59
2022/07/06 09:58:16;;;;;;;3.35;1.00;;;20.90;84.80;;;;;;5033948;28;20045;-58
2022/07/06 10:00:43;;;;;;;3.53;1.08;;;21.00;95.30;;;;;;5034030;28;20176;-58
2022/07/06 10:03:08;;;;;;;3.22;0.93;;;20.80;88.40;;;;;;5016188;28;20107;-59
2022/07/06 10:05:38;;;;;;;6.95;1.20;;;21.10;88.00;;;;;;5033978;28;20485;-59
2022/07/06 10:08:05;;;;;;;2.88;1.00;;;21.40;86.50;;;;;;5033847;28;20037;-59
2022/07/06 10:10:32;;;;;;;3.92;0.88;;;21.70;83.80;;;;;;5033825;28;20041;-58
2022/07/06 10:12:59;;;;;;;4.55;1.00;;;22.10;90.70;;;;;;5033765;28;20706;-59
2022/07/06 10:15:27;;;;;;;6.30;1.13;;;22.10;84.30;;;;;;5033846;28;20037;-58
2022/07/06 10:17:54;;;;;;;5.30;1.15;;;22.30;84.80;;;;;;5033695;28;20060;-59
2022/07/06 10:20:21;;;;;;;1.95;0.80;;;22.80;82.50;;;;;;5033417;28;20033;-60
2022/07/06 10:22:50;;;;;;;2.85;0.80;;;22.90;80.00;;;;;;5033895;28;20034;-60
2022/07/06 10:25:17;;;;;;;3.20;0.88;;;22.80;69.10;;;;;;5033686;28;20045;-58
2022/07/06 10:27:45;;;;;;;1.95;0.70;;;22.80;67.30;;;;;;5033252;28;20045;-59
2022/07/06 10:30:11;;;;;;;3.47;0.93;;;23.00;75.60;;;;;;5015635;28;20077;-58
2022/07/06 10:32:40;;;;;;;2.72;0.80;;;23.20;67.60;;;;;;5033294;28;20048;-58
2022/07/06 10:35:07;;;;;;;2.67;0.77;;;23.40;67.20;;;;;;5015093;28;20033;-58
2022/07/06 10:37:33;;;;;;;3.72;0.77;;;23.40;66.70;;;;;;5032966;28;20076;-59
2022/07/06 10:42:59;;;;;;;5.85;1.02;;;24.00;73.00;;;;;;5033310;28;20107;-58
2022/07/06 10:45:27;;;;;;;3.53;0.98;;;23.10;63.50;;;;;;5032949;28;20041;-58
2022/07/06 10:48:11;;;;;;;3.30;0.82;;;23.10;64.70;;;;;;5015609;28;20128;-60
2022/07/06 10:50:38;;;;;;;1.63;0.80;;;23.10;65.80;;;;;;5033023;28;20112;-55
2022/07/06 10:53:14;;;;;;;2.10;0.80;;;23.20;66.40;;;;;;5015269;28;20037;-54
2022/07/06 10:55:47;;;;;;;2.38;0.95;;;23.60;76.00;;;;;;5032663;28;20481;-54
2022/07/06 10:58:13;;;;;;;3.97;0.88;;;23.70;65.30;;;;;;5033022;28;20045;-55
2022/07/06 11:00:53;;;;;;;3.45;1.48;;;23.80;64.50;;;;;;5015474;28;20041;-55
2022/07/06 11:03:46;;;;;;;2.40;0.80;;;23.50;71.20;;;;;;5014581;28;20064;-55
2022/07/06 11:06:22;;;;;;;3.08;0.60;;;22.30;73.80;;;;;;5002712;28;20068;-55
2022/07/06 11:08:52;;;;;;;4.30;0.88;;;23.20;72.70;;;;;;5032297;28;20500;-58
2022/07/06 11:11:42;;;;;;;2.65;1.10;;;23.30;64.80;;;;;;5032776;28;20090;-60
2022/07/06 11:14:12;;;;;;;2.90;1.02;;;23.40;63.90;;;;;;5022605;28;20049;-60
2022/07/06 11:17:01;;;;;;;2.25;0.90;;;23.50;63.70;;;;;;5014776;28;20037;-58
2022/07/06 11:19:27;;;;;;;3.03;1.00;;;23.80;66.40;;;;;;5032285;28;20084;-58
2022/07/06 11:21:58;;;;;;;2.90;0.88;;;23.90;65.60;;;;;;5032258;28;20496;-60
2022/07/06 11:24:29;;;;;;;6.68;1.10;;;23.80;69.10;;;;;;5032546;28;20089;-58
2022/07/06 11:26:57;;;;;;;2.75;0.90;;;23.70;62.40;;;;;;5032423;28;20037;-59
2022/07/06 11:29:26;;;;;;;1.95;0.90;;;23.60;62.10;;;;;;5032720;28;20041;-60
2022/07/06 11:31:54;;;;;;;1.50;0.90;;;23.40;63.40;;;;;;5032319;28;20046;-59
2022/07/06 11:34:27;;;;;;;3.40;1.10;;;23.20;64.10;;;;;;5032305;28;20045;-59
2022/07/06 11:36:59;;;;;;;4.70;1.10;;;23.30;65.70;;;;;;5014226;28;20511;-60
2022/07/06 11:39:29;;;;;;;4.05;0.95;;;23.60;64.30;;;;;;5032062;28;20053;-60
2022/07/06 11:41:56;;;;;;;3.42;0.75;;;23.70;65.40;;;;;;5032133;28;20044;-60
2022/07/06 11:44:22;;;;;;;3.65;1.00;;;23.90;63.90;;;;;;5032305;28;20042;-60
2022/07/06 11:46:49;;;;;;;4.15;0.98;;;23.90;64.20;;;;;;5031325;28;20060;-60
2022/07/06 11:49:15;;;;;;;6.68;1.30;;;23.90;64.30;;;;;;5032146;28;20034;-59
2022/07/06 11:51:42;;;;;;;4.65;1.05;;;23.90;64.70;;;;;;5031628;28;20128;-55
2022/07/06 11:54:19;;;;;;;4.95;1.20;;;24.00;64.20;;;;;;5031943;28;20041;-55
2022/07/06 11:56:46;;;;;;;2.65;0.95;;;24.00;62.10;;;;;;5031830;28;20135;-54
2022/07/06 11:59:11;;;;;;;4.25;1.10;;;24.50;72.60;;;;;;5013885;28;20049;-55
2022/07/06 12:01:41;;;;;;;3.67;1.10;;;24.40;64.50;;;;;;5031616;28;20386;-55
2022/07/06 12:04:07;;;;;;;2.10;0.95;;;24.50;62.30;;;;;;5031761;28;20448;-56
2022/07/06 12:06:33;;;;;;;2.22;0.80;;;24.50;62.30;;;;;;5031799;28;20072;-56
2022/07/06 12:09:04;;;;;;;2.90;1.00;;;24.30;60.70;;;;;;5031742;28;20142;-55
2022/07/06 12:11:37;;;;;;;3.40;0.95;;;23.90;67.30;;;;;;5013994;28;20480;-56
2022/07/06 12:14:20;;;;;;;2.20;0.80;;;24.10;61.10;;;;;;5031540;28;20125;-55
2022/07/06 12:16:48;;;;;;;4.18;0.80;;;24.00;61.40;;;;;;5031352;28;20046;-54
2022/07/06 12:19:14;;;;;;;4.63;1.10;;;23.90;62.00;;;;;;5030450;28;20374;-55
2022/07/06 12:21:45;;;;;;;3.30;1.00;;;23.90;63.60;;;;;;5031700;28;20480;-54
2022/07/06 12:24:18;;;;;;;7.78;1.00;;;24.00;62.50;;;;;;5031911;28;20466;-56
2022/07/06 12:26:44;;;;;;;2.50;0.98;;;24.20;62.80;;;;;;5031664;28;20488;-56
2022/07/06 12:29:13;;;;;;;3.58;1.20;;;24.50;70.70;;;;;;5031226;28;20132;-56
2022/07/06 12:31:44;;;;;;;2.47;1.00;;;24.50;61.70;;;;;;5031229;28;20122;-56
2022/07/06 12:34:14;;;;;;;8.13;1.40;;;24.60;61.30;;;;;;5014148;28;20034;-56
2022/07/06 12:36:57;;;;;;;8.88;1.10;;;24.80;59.20;;;;;;5031531;28;20052;-56
2022/07/06 12:39:25;;;;;;;2.30;0.80;;;24.70;60.50;;;;;;5031557;28;20041;-56
2022/07/06 12:41:51;;;;;;;5.00;1.10;;;24.60;61.70;;;;;;5031809;28;20037;-57
2022/07/06 12:44:21;;;;;;;4.82;1.40;;;24.40;62.10;;;;;;5031417;28;20092;-56
2022/07/06 12:46:47;;;;;;;5.00;1.00;;;24.10;62.70;;;;;;5031584;28;20042;-56
2022/07/06 12:49:22;;;;;;;8.57;1.05;;;23.70;63.30;;;;;;5013409;28;20045;-56
2022/07/06 12:51:55;;;;;;;2.95;1.15;;;23.50;64.80;;;;;;5031443;28;20068;-56
2022/07/06 12:54:22;;;;;;;3.45;1.05;;;23.40;64.50;;;;;;5030999;28;20538;-56
2022/07/06 12:57:36;;;;;;;3.45;1.10;;;23.30;64.80;;;;;;5031380;28;20060;-56